WESTPORT MEDIA Westport In The Media

Enter your "Place, State", US Zip Code or ICAO:  

Cozumel Civ / Mil, Mexico

 Lat: 20.53N, Lon: 86.93W
ICAO Used: MMCZ
Current Conditions
Updated: 12:55 AM GMT-6 SUN OCT 26 2014
Sun & Moon Information
Mostly Clear
Mostly Clear
Temp: 22°C
Humidity: 94%
Wind Speed: NW 14 MPH
Barometer: 1014 mb
Dewpoint: 21°C
Heat Index: 22°C
Wind Chill: 22°C
Civil Twilight: 5:23 AM GMT-6 Moon Phase:
Waxing Crescent Moon
Sunrise: 5:46 AM GMT-6
Sunset: 5:16 PM GMT-6
Civil Twilight: 5:38 PM GMT-6
Forecast for Cozumel Civ / Mil, Mexico:
(Forecast based on TAF for )
1000 AM GMT-6 SUN OCT 26 2014
  
MORNING AFTERNOON EVENING OVERNIGHT
Partly
Cloudy
Partly
Cloudy
Partly
Cloudy
Partly
Cloudy
ZoneCast:
Dated: 1000 AM GMT-6 SUN OCT 26 2014
Morning...Turning partly cloudy with winds from the northnorthwest at 17 mph.

Afternoon...Partly cloudy with winds from the northnorthwest at 17 mph.

Evening...Partly cloudy with winds from the northnorthwest at 17 mph.

Overnight...Partly cloudy with winds from the northnorthwest at 17 mph.

Original Encoded TAF:
Dated: 1000 AM GMT-6 SUN OCT 26 2014
TAF MMCZ 260436Z 2606/2712 34006KT P6SM SCT015 
     FM261600 34015KT P6SM SCT015 SCT250 
     FM270100 06006KT P6SM SCT015